Time;durP1;ratioP1;P1;durP2;ratioP2;P2;SDS_P1;SDS_P2;PMS_P1;PMS_P2;Temp;Humidity;BMP_temperature;BMP_pressure;BME280_temperature;BME280_humidity;BME280_pressure;Samples;Min_cycle;Max_cycle;Signal;HPM_P1;HPM_P2
2021/12/30 00:03:10;;;;;;;0.80;0.80;;;12.50;53.20;;;;;;10352653;28;20231;-76
2021/12/30 00:08:13;;;;;;;0.70;0.70;;;12.60;53.00;;;;;;10349350;28;20222;-77
2021/12/30 00:13:17;;;;;;;0.87;0.80;;;12.60;53.10;;;;;;10355726;28;20240;-76
2021/12/30 00:18:21;;;;;;;0.80;0.80;;;12.60;53.80;;;;;;10351944;28;20628;-76
2021/12/30 00:23:24;;;;;;;0.80;0.80;;;12.70;53.60;;;;;;10348201;28;20238;-77
2021/12/30 00:28:28;;;;;;;0.90;0.90;;;12.80;53.70;;;;;;10352376;28;20618;-77
2021/12/30 00:33:34;;;;;;;0.70;0.70;;;12.90;54.30;;;;;;10343286;28;20242;-77
2021/12/30 00:38:39;;;;;;;1.13;1.13;;;13.00;54.10;;;;;;10347712;28;20574;-77
2021/12/30 00:43:43;;;;;;;1.00;1.00;;;13.00;54.40;;;;;;10347383;28;20245;-77
2021/12/30 00:48:47;;;;;;;1.00;1.00;;;13.10;54.40;;;;;;10348100;28;20238;-77
2021/12/30 00:53:50;;;;;;;1.00;1.00;;;13.20;54.50;;;;;;10349498;28;20586;-77
2021/12/30 00:58:54;;;;;;;0.87;0.87;;;13.30;54.60;;;;;;10350625;28;20237;-77
2021/12/30 01:03:57;;;;;;;1.00;1.00;;;13.30;54.60;;;;;;10349557;28;20320;-77
2021/12/30 01:09:01;;;;;;;0.83;0.83;;;13.40;55.20;;;;;;10352087;28;20234;-77
2021/12/30 01:14:15;;;;;;;0.90;0.90;;;13.50;54.70;;;;;;10346944;28;20218;-77
2021/12/30 01:19:42;;;;;;;1.07;1.00;;;13.60;54.90;;;;;;10349342;28;20228;-78
2021/12/30 01:24:46;;;;;;;0.70;0.70;;;13.60;54.90;;;;;;10353265;28;20256;-77
2021/12/30 01:29:51;;;;;;;0.80;0.80;;;13.70;55.00;;;;;;10357897;28;20222;-77
2021/12/30 01:34:54;;;;;;;0.80;0.80;;;13.70;55.00;;;;;;10359504;28;20237;-77
2021/12/30 01:39:57;;;;;;;0.80;0.80;;;13.80;55.00;;;;;;10361187;28;20230;-77
2021/12/30 01:45:02;;;;;;;0.90;0.90;;;13.80;54.80;;;;;;10353626;28;20233;-77
2021/12/30 01:50:06;;;;;;;0.87;0.87;;;13.90;55.10;;;;;;10361412;28;20307;-77
2021/12/30 01:55:13;;;;;;;0.77;0.77;;;13.90;55.10;;;;;;10353035;28;20239;-77
2021/12/30 02:00:20;;;;;;;0.80;0.80;;;14.00;55.20;;;;;;10356285;28;20227;-77
2021/12/30 02:05:23;;;;;;;0.70;0.70;;;14.00;55.20;;;;;;10357727;28;20230;-77
2021/12/30 02:10:26;;;;;;;0.80;0.80;;;14.00;54.70;;;;;;10353827;28;20234;-77
2021/12/30 02:15:31;;;;;;;0.87;0.87;;;14.10;54.80;;;;;;10356915;28;20226;-77
2021/12/30 02:20:45;;;;;;;0.80;0.80;;;14.10;55.30;;;;;;10351657;28;20229;-77
2021/12/30 02:25:50;;;;;;;0.70;0.70;;;14.10;56.00;;;;;;10350635;28;20318;-77
2021/12/30 02:30:56;;;;;;;0.60;0.60;;;14.10;55.10;;;;;;10355877;28;20240;-77
2021/12/30 02:36:01;;;;;;;0.70;0.70;;;14.10;55.30;;;;;;10354846;28;20615;-77
2021/12/30 02:41:04;;;;;;;0.60;0.60;;;14.20;55.40;;;;;;10357515;28;20595;-76
2021/12/30 02:46:07;;;;;;;0.60;0.60;;;14.20;55.40;;;;;;10356100;28;20703;-77
2021/12/30 02:51:13;;;;;;;0.60;0.60;;;14.20;55.40;;;;;;10355431;28;20222;-77
2021/12/30 02:56:16;;;;;;;0.60;0.60;;;14.30;55.50;;;;;;10355978;28;20603;-77
2021/12/30 03:01:22;;;;;;;0.80;0.80;;;14.30;55.20;;;;;;10349308;28;20222;-77
2021/12/30 03:06:27;;;;;;;0.70;0.70;;;14.30;55.10;;;;;;10357087;28;20611;-77
2021/12/30 03:11:31;;;;;;;0.80;0.80;;;14.40;55.10;;;;;;10355060;28;20599;-77
2021/12/30 03:16:37;;;;;;;0.70;0.70;;;14.40;54.70;;;;;;10353671;28;20229;-77
2021/12/30 03:21:42;;;;;;;1.00;0.70;;;14.40;54.80;;;;;;10352881;28;20229;-77
2021/12/30 03:26:46;;;;;;;0.70;0.70;;;14.40;54.70;;;;;;10349822;28;20250;-77
2021/12/30 03:31:49;;;;;;;0.80;0.80;;;14.40;54.40;;;;;;10351864;28;20569;-77
2021/12/30 03:36:53;;;;;;;0.60;0.60;;;14.40;54.30;;;;;;10353036;28;20245;-77
2021/12/30 03:41:56;;;;;;;0.60;0.60;;;14.50;54.60;;;;;;10353476;28;20245;-77
2021/12/30 03:47:00;;;;;;;0.70;0.70;;;14.50;54.20;;;;;;10349996;28;20229;-77
2021/12/30 03:52:05;;;;;;;0.60;0.60;;;14.50;54.20;;;;;;10351928;28;20218;-77
2021/12/30 03:57:08;;;;;;;0.93;0.70;;;14.50;54.40;;;;;;10348738;28;20786;-77
2021/12/30 04:02:11;;;;;;;0.67;0.67;;;14.50;54.10;;;;;;10351689;28;20218;-77
2021/12/30 04:07:16;;;;;;;0.93;0.80;;;14.50;54.10;;;;;;10347956;28;20309;-77
2021/12/30 04:12:19;;;;;;;0.70;0.70;;;14.50;54.10;;;;;;10350847;28;20606;-77
2021/12/30 04:17:26;;;;;;;0.87;0.87;;;14.50;53.80;;;;;;10357909;28;20234;-77
2021/12/30 04:22:31;;;;;;;0.70;0.70;;;14.50;53.70;;;;;;10354447;28;20224;-77
2021/12/30 04:27:35;;;;;;;1.57;0.80;;;14.50;53.70;;;;;;10350434;28;20238;-77
2021/12/30 04:32:39;;;;;;;0.80;0.80;;;14.50;53.70;;;;;;10345382;28;20238;-77
2021/12/30 04:37:43;;;;;;;0.70;0.70;;;14.50;53.60;;;;;;10348973;28;20226;-77
2021/12/30 04:42:47;;;;;;;0.70;0.70;;;14.50;53.70;;;;;;10348285;28;20230;-77
2021/12/30 04:47:50;;;;;;;0.70;0.70;;;14.50;53.40;;;;;;10349134;28;20234;-77
2021/12/30 04:52:54;;;;;;;0.93;0.80;;;14.50;53.60;;;;;;10345232;28;20240;-77
2021/12/30 04:57:58;;;;;;;0.73;0.73;;;14.50;53.70;;;;;;10343794;28;20234;-77
2021/12/30 05:03:09;;;;;;;0.90;0.70;;;14.50;54.30;;;;;;10348989;28;20230;-77
2021/12/30 05:08:15;;;;;;;1.83;1.20;;;14.50;53.40;;;;;;10352916;28;20218;-77
2021/12/30 05:13:19;;;;;;;0.97;0.80;;;14.50;53.60;;;;;;10349603;28;20244;-77
2021/12/30 05:18:30;;;;;;;1.30;0.60;;;14.60;54.30;;;;;;10344105;28;20244;-77
2021/12/30 05:23:35;;;;;;;0.90;0.60;;;14.50;53.50;;;;;;10349927;28;20230;-77
2021/12/30 05:28:38;;;;;;;0.80;0.60;;;14.50;53.50;;;;;;10350203;28;20242;-77
2021/12/30 05:33:42;;;;;;;2.00;0.90;;;14.50;54.10;;;;;;10353185;28;20226;-78
2021/12/30 05:38:47;;;;;;;0.60;0.60;;;14.50;53.30;;;;;;10346338;28;20231;-77
2021/12/30 05:43:50;;;;;;;0.70;0.70;;;14.60;53.40;;;;;;10346911;28;20790;-77
2021/12/30 05:48:54;;;;;;;0.70;0.70;;;14.60;53.40;;;;;;10351860;28;20241;-77
2021/12/30 05:53:59;;;;;;;0.70;0.60;;;14.60;53.40;;;;;;10348066;28;20226;-77
2021/12/30 05:59:02;;;;;;;0.67;0.67;;;14.60;53.50;;;;;;10350871;28;20249;-77
2021/12/30 06:04:05;;;;;;;0.90;0.80;;;14.60;53.40;;;;;;10353139;28;20241;-77
2021/12/30 06:09:10;;;;;;;1.00;0.70;;;14.60;53.40;;;;;;10349535;28;20230;-77
2021/12/30 06:14:14;;;;;;;0.70;0.70;;;14.60;53.70;;;;;;10360264;28;20269;-77
2021/12/30 06:19:17;;;;;;;1.20;0.77;;;14.60;53.70;;;;;;10356366;28;20222;-77
2021/12/30 06:24:22;;;;;;;2.30;0.80;;;14.60;53.70;;;;;;10353659;28;20226;-77
2021/12/30 06:29:25;;;;;;;1.63;0.70;;;14.50;53.90;;;;;;10356755;28;20615;-77
2021/12/30 06:34:29;;;;;;;1.13;0.90;;;14.50;53.90;;;;;;10351312;28;20241;-77
2021/12/30 06:39:33;;;;;;;1.07;0.90;;;14.50;53.90;;;;;;10355460;28;20226;-77
2021/12/30 06:44:36;;;;;;;0.90;0.90;;;14.60;54.20;;;;;;10350716;28;20708;-78
2021/12/30 06:49:39;;;;;;;0.80;0.80;;;14.60;53.90;;;;;;10353081;28;20222;-77
2021/12/30 06:54:44;;;;;;;1.70;1.13;;;14.60;54.00;;;;;;10353875;28;20240;-77
2021/12/30 06:59:50;;;;;;;0.90;0.90;;;14.70;54.20;;;;;;10348729;28;20229;-77
2021/12/30 07:04:53;;;;;;;1.10;1.00;;;14.70;54.10;;;;;;10352848;28;20231;-78
2021/12/30 07:09:58;;;;;;;1.70;1.00;;;14.70;54.20;;;;;;10348481;28;20227;-78
2021/12/30 07:15:01;;;;;;;1.80;1.70;;;14.70;54.40;;;;;;10354219;28;20234;-78
2021/12/30 07:20:05;;;;;;;1.83;1.73;;;14.80;54.30;;;;;;10352295;28;20236;-77
2021/12/30 07:25:16;;;;;;;2.57;2.37;;;14.90;54.40;;;;;;10350649;28;20230;-76
2021/12/30 07:30:20;;;;;;;1.40;1.30;;;14.90;54.50;;;;;;10350611;28;20793;-76
2021/12/30 07:35:25;;;;;;;1.17;1.10;;;14.90;54.10;;;;;;10348925;28;20241;-76
2021/12/30 07:40:30;;;;;;;1.93;1.30;;;15.00;54.20;;;;;;10349126;28;20652;-76
2021/12/30 07:45:33;;;;;;;2.93;2.73;;;15.00;54.50;;;;;;10351002;28;20230;-76
2021/12/30 07:50:36;;;;;;;5.27;3.10;;;14.90;54.30;;;;;;10357223;28;20280;-77
2021/12/30 07:55:41;;;;;;;3.27;2.97;;;14.90;54.50;;;;;;10347519;28;20235;-77
2021/12/30 08:00:44;;;;;;;4.97;4.50;;;14.90;55.00;;;;;;10347588;28;20229;-76
2021/12/30 08:05:48;;;;;;;2.83;2.60;;;14.90;54.90;;;;;;10352409;28;20250;-77
2021/12/30 08:10:53;;;;;;;2.50;2.30;;;14.90;55.20;;;;;;10353602;28;20227;-77
2021/12/30 08:15:57;;;;;;;3.40;3.10;;;14.90;55.60;;;;;;10351389;28;20244;-77
2021/12/30 08:21:00;;;;;;;2.43;2.23;;;14.90;55.20;;;;;;10354492;28;20572;-71
2021/12/30 08:26:05;;;;;;;2.33;1.80;;;14.90;55.40;;;;;;10351975;28;20245;-71
2021/12/30 08:31:08;;;;;;;5.63;4.50;;;14.90;56.00;;;;;;10351100;28;20231;-71
2021/12/30 08:36:11;;;;;;;7.93;6.37;;;14.90;55.50;;;;;;10351307;28;20655;-71
2021/12/30 08:41:16;;;;;;;9.53;7.63;;;15.00;55.50;;;;;;10351451;28;20229;-72
2021/12/30 08:46:19;;;;;;;4.13;3.73;;;15.00;56.10;;;;;;10349977;28;20238;-71
2021/12/30 08:51:22;;;;;;;1.60;1.50;;;15.00;55.80;;;;;;10351132;28;20242;-72
2021/12/30 08:56:27;;;;;;;1.30;1.17;;;15.00;56.10;;;;;;10348973;28;20735;-71
2021/12/30 09:01:30;;;;;;;1.70;1.60;;;15.00;56.10;;;;;;10352677;28;20221;-72
2021/12/30 09:06:34;;;;;;;1.17;1.17;;;15.10;56.20;;;;;;10352239;28;20694;-72
2021/12/30 09:11:38;;;;;;;1.07;1.00;;;15.10;56.10;;;;;;10351309;28;20230;-72
2021/12/30 09:16:42;;;;;;;1.20;1.20;;;15.20;56.30;;;;;;10346083;28;20233;-72
2021/12/30 09:21:45;;;;;;;1.40;1.30;;;15.20;56.10;;;;;;10347494;28;20230;-72
2021/12/30 09:26:50;;;;;;;1.60;1.50;;;15.30;56.10;;;;;;10349306;28;20238;-72
2021/12/30 09:31:54;;;;;;;1.90;1.07;;;15.30;56.40;;;;;;10347653;28;20234;-72
2021/12/30 09:36:57;;;;;;;1.00;0.90;;;15.40;56.20;;;;;;10346772;28;20226;-72
2021/12/30 09:42:01;;;;;;;1.07;1.03;;;15.40;55.90;;;;;;10346662;28;20233;-72
2021/12/30 09:47:05;;;;;;;0.87;0.87;;;15.40;56.50;;;;;;10353983;28;20231;-72
2021/12/30 09:52:09;;;;;;;1.10;1.10;;;15.40;56.10;;;;;;10356293;28;20258;-71
2021/12/30 09:57:14;;;;;;;1.00;1.00;;;15.40;56.20;;;;;;10350815;28;20249;-71
2021/12/30 10:02:17;;;;;;;0.93;0.80;;;15.40;56.50;;;;;;10353273;28;20222;-71
2021/12/30 10:07:22;;;;;;;0.83;0.83;;;15.40;56.50;;;;;;10358788;28;20231;-71
2021/12/30 10:12:39;;;;;;;0.80;0.80;;;15.40;56.50;;;;;;10354915;28;20227;-71
2021/12/30 10:17:42;;;;;;;0.73;0.73;;;15.40;56.90;;;;;;10356471;28;20228;-72
2021/12/30 10:22:47;;;;;;;1.00;1.00;;;15.40;56.50;;;;;;10351626;28;20699;-72
2021/12/30 10:27:53;;;;;;;0.90;0.90;;;15.40;56.50;;;;;;10354922;28;20236;-71
2021/12/30 10:33:12;;;;;;;1.20;1.20;;;15.40;56.50;;;;;;10355072;28;20225;-72
2021/12/30 10:38:15;;;;;;;0.90;0.90;;;15.50;57.20;;;;;;10354988;28;20226;-68
2021/12/30 10:43:32;;;;;;;1.37;1.10;;;15.60;56.60;;;;;;10353439;28;20222;-68
2021/12/30 10:48:47;;;;;;;0.80;0.80;;;15.60;57.00;;;;;;10352994;28;20781;-71
2021/12/30 10:53:53;;;;;;;1.40;1.30;;;15.60;56.60;;;;;;10354185;28;20229;-71
2021/12/30 10:59:13;;;;;;;1.50;1.40;;;15.70;56.70;;;;;;10352453;28;20253;-72
2021/12/30 11:04:17;;;;;;;1.20;1.10;;;15.80;57.00;;;;;;10349737;28;20214;-72
2021/12/30 11:09:22;;;;;;;0.90;0.90;;;15.90;56.90;;;;;;10350057;28;20243;-72
2021/12/30 11:14:29;;;;;;;0.80;0.80;;;16.00;57.00;;;;;;10354794;28;20261;-72
2021/12/30 11:19:35;;;;;;;2.30;1.00;;;16.00;57.00;;;;;;10347579;28;20246;-72
2021/12/30 11:24:40;;;;;;;2.00;1.00;;;16.10;57.10;;;;;;10347985;28;20234;-72
2021/12/30 11:29:48;;;;;;;2.30;2.10;;;16.20;56.50;;;;;;10355042;28;21101;-72
2021/12/30 11:34:51;;;;;;;1.40;1.30;;;16.20;56.60;;;;;;10353275;28;20249;-72
2021/12/30 11:39:57;;;;;;;1.00;1.00;;;16.20;56.30;;;;;;10351993;28;20239;-72
2021/12/30 11:45:03;;;;;;;1.47;1.20;;;16.30;56.40;;;;;;10349403;28;20249;-72
2021/12/30 11:50:11;;;;;;;1.67;1.20;;;16.30;56.50;;;;;;10355407;28;20258;-68
2021/12/30 11:55:52;;;;;;;0.80;0.80;;;16.40;56.30;;;;;;10349843;28;20223;-69
2021/12/30 12:00:57;;;;;;;0.90;0.90;;;16.50;56.20;;;;;;10349506;28;20252;-71
2021/12/30 12:06:04;;;;;;;0.80;0.80;;;16.50;56.10;;;;;;10350654;28;20245;-71
2021/12/30 12:11:12;;;;;;;0.63;0.63;;;16.50;56.10;;;;;;10349362;28;20753;-71
2021/12/30 12:16:38;;;;;;;0.70;0.70;;;16.60;55.80;;;;;;10351833;28;20245;-71
2021/12/30 12:21:44;;;;;;;0.87;0.87;;;16.70;55.80;;;;;;10352084;28;20313;-70
2021/12/30 12:26:47;;;;;;;0.73;0.73;;;16.80;55.50;;;;;;10353523;28;21204;-71
2021/12/30 12:31:57;;;;;;;0.90;0.90;;;16.80;55.40;;;;;;10348368;28;20666;-70
2021/12/30 12:37:00;;;;;;;1.23;1.00;;;16.80;55.40;;;;;;10351686;28;20235;-71
2021/12/30 12:42:05;;;;;;;1.30;1.30;;;16.80;55.50;;;;;;10348849;28;20691;-71
2021/12/30 12:47:16;;;;;;;1.40;1.30;;;16.80;55.60;;;;;;10346622;28;20227;-71
2021/12/30 12:52:43;;;;;;;0.97;0.97;;;16.90;55.60;;;;;;10351027;28;20240;-71
2021/12/30 12:57:46;;;;;;;1.10;1.10;;;17.00;55.50;;;;;;10345744;28;20581;-70
2021/12/30 13:02:51;;;;;;;0.90;0.90;;;17.10;55.60;;;;;;10351430;28;20234;-78
2021/12/30 13:07:57;;;;;;;1.00;1.00;;;17.10;55.20;;;;;;10350401;28;20250;-78
2021/12/30 13:13:01;;;;;;;0.83;0.83;;;17.20;55.20;;;;;;10349559;28;20241;-78
2021/12/30 13:18:15;;;;;;;0.90;0.90;;;17.20;55.10;;;;;;10350922;28;20712;-78
2021/12/30 13:23:29;;;;;;;0.90;0.90;;;17.30;54.50;;;;;;10353010;28;20229;-78
2021/12/30 13:28:44;;;;;;;0.90;0.90;;;17.30;54.50;;;;;;10356245;28;20237;-78
2021/12/30 13:33:57;;;;;;;1.70;1.60;;;17.30;54.40;;;;;;10357363;28;20225;-78
2021/12/30 13:39:14;;;;;;;0.97;0.97;;;17.30;54.00;;;;;;10361361;28;20746;-77
2021/12/30 13:44:18;;;;;;;0.90;0.80;;;17.40;54.60;;;;;;10354300;28;20232;-78
2021/12/30 13:49:24;;;;;;;1.53;1.43;;;17.30;54.50;;;;;;10355889;28;20284;-79
2021/12/30 13:54:27;;;;;;;1.20;1.20;;;17.30;54.30;;;;;;10355027;28;20242;-78
2021/12/30 13:59:31;;;;;;;1.30;1.20;;;17.40;54.40;;;;;;10352383;28;20228;-78
2021/12/30 14:04:40;;;;;;;1.00;1.00;;;17.40;54.20;;;;;;10355209;28;20260;-68
2021/12/30 14:09:54;;;;;;;1.17;0.80;;;17.40;53.70;;;;;;10356498;28;20233;-69
2021/12/30 14:15:14;;;;;;;0.80;0.80;;;17.40;53.90;;;;;;10354972;28;20234;-68
2021/12/30 14:20:19;;;;;;;1.00;1.00;;;17.50;53.90;;;;;;10349244;28;20230;-68
2021/12/30 14:25:30;;;;;;;1.47;1.10;;;17.50;53.90;;;;;;10353387;28;20733;-69
2021/12/30 14:30:36;;;;;;;1.23;1.23;;;17.50;53.90;;;;;;10349628;28;20229;-68
2021/12/30 14:35:41;;;;;;;1.10;1.10;;;17.50;53.90;;;;;;10353483;28;20316;-68
2021/12/30 14:40:44;;;;;;;1.00;1.00;;;17.50;53.70;;;;;;10352882;28;20233;-68
2021/12/30 14:45:48;;;;;;;1.73;0.90;;;17.50;53.90;;;;;;10352775;28;20296;-68
2021/12/30 14:50:53;;;;;;;0.90;0.90;;;17.50;53.70;;;;;;10347406;28;20254;-70
2021/12/30 14:55:58;;;;;;;0.80;0.80;;;17.50;53.40;;;;;;10350141;28;20245;-70
2021/12/30 15:01:07;;;;;;;0.80;0.80;;;17.50;53.50;;;;;;10355200;28;20230;-70
2021/12/30 15:06:12;;;;;;;2.77;1.20;;;17.50;53.50;;;;;;10357619;28;20315;-68
2021/12/30 15:11:17;;;;;;;0.93;0.93;;;17.50;53.20;;;;;;10354727;28;20230;-68
2021/12/30 15:16:20;;;;;;;0.80;0.80;;;17.50;53.20;;;;;;10353555;28;20228;-68
2021/12/30 15:21:24;;;;;;;0.80;0.80;;;17.50;53.20;;;;;;10354732;28;20721;-72
2021/12/30 15:26:28;;;;;;;0.90;0.90;;;17.40;52.80;;;;;;10353355;28;20230;-72
2021/12/30 15:31:31;;;;;;;0.90;0.90;;;17.40;53.00;;;;;;10352061;28;20602;-72
2021/12/30 15:36:35;;;;;;;1.03;0.97;;;17.40;52.90;;;;;;10350522;28;20238;-72
2021/12/30 15:41:41;;;;;;;2.60;1.13;;;17.30;52.50;;;;;;10352829;28;20237;-72
2021/12/30 15:46:44;;;;;;;1.40;1.40;;;17.30;52.90;;;;;;10350130;28;20732;-72
2021/12/30 15:51:49;;;;;;;1.20;1.20;;;17.30;52.90;;;;;;10354772;28;20230;-72
2021/12/30 15:56:53;;;;;;;1.53;1.43;;;17.20;52.70;;;;;;10350201;28;20353;-72
2021/12/30 16:01:56;;;;;;;2.00;1.90;;;17.10;52.80;;;;;;10349333;28;20619;-72
2021/12/30 16:07:05;;;;;;;2.83;2.50;;;17.00;52.50;;;;;;10350576;28;20218;-72
2021/12/30 16:12:08;;;;;;;1.60;1.50;;;17.00;52.20;;;;;;10350724;28;20245;-72
2021/12/30 16:17:12;;;;;;;1.70;1.60;;;16.90;52.50;;;;;;10348171;28;20534;-72
2021/12/30 16:22:16;;;;;;;1.90;1.80;;;16.90;52.90;;;;;;10351294;28;20598;-72
2021/12/30 16:27:19;;;;;;;1.20;1.20;;;16.80;52.80;;;;;;10354337;28;20222;-72
2021/12/30 16:32:22;;;;;;;1.63;1.50;;;16.90;53.10;;;;;;10350518;28;20235;-72
2021/12/30 16:37:27;;;;;;;1.40;1.30;;;16.80;53.10;;;;;;10349694;28;20230;-72
2021/12/30 16:42:30;;;;;;;1.60;1.50;;;16.80;52.80;;;;;;10346012;28;20703;-72
2021/12/30 16:47:33;;;;;;;1.47;1.37;;;16.80;52.80;;;;;;10347767;28;20237;-72
2021/12/30 16:52:38;;;;;;;1.43;1.20;;;16.70;52.90;;;;;;10351291;28;20250;-72
2021/12/30 16:57:42;;;;;;;1.13;1.13;;;16.70;52.70;;;;;;10346944;28;20255;-72
2021/12/30 17:02:45;;;;;;;3.73;3.43;;;16.70;53.00;;;;;;10342724;28;20242;-72
2021/12/30 17:07:51;;;;;;;1.40;1.40;;;16.70;53.00;;;;;;10342101;28;20306;-72
2021/12/30 17:12:54;;;;;;;1.30;1.30;;;16.70;52.70;;;;;;10347180;28;20230;-72
2021/12/30 17:17:57;;;;;;;1.40;1.40;;;16.70;53.10;;;;;;10348041;28;20222;-72
2021/12/30 17:23:02;;;;;;;1.50;1.40;;;16.70;53.00;;;;;;10345836;28;20233;-72
2021/12/30 17:28:12;;;;;;;1.23;1.23;;;16.70;52.80;;;;;;10350771;28;20230;-72
2021/12/30 17:33:16;;;;;;;1.10;1.10;;;16.70;52.70;;;;;;10346523;28;20245;-72
2021/12/30 17:38:21;;;;;;;1.37;1.10;;;16.70;52.80;;;;;;10348121;28;20222;-72
2021/12/30 17:43:24;;;;;;;1.30;1.20;;;16.70;52.70;;;;;;10349677;28;20241;-72
2021/12/30 17:48:32;;;;;;;1.00;1.00;;;16.70;52.70;;;;;;10341513;28;20614;-72
2021/12/30 17:53:37;;;;;;;1.40;1.30;;;16.70;52.80;;;;;;10349671;28;20234;-72
2021/12/30 17:58:40;;;;;;;1.40;1.30;;;16.70;52.80;;;;;;10340010;28;20237;-72
2021/12/30 18:03:44;;;;;;;1.33;1.13;;;16.70;53.00;;;;;;10350023;28;20313;-72
2021/12/30 18:08:49;;;;;;;1.50;1.40;;;16.70;52.80;;;;;;10354515;28;20234;-72
2021/12/30 18:13:54;;;;;;;1.00;1.00;;;16.70;52.50;;;;;;10358480;28;20222;-72
2021/12/30 18:18:59;;;;;;;1.50;1.40;;;16.80;52.60;;;;;;10356555;28;20351;-72
2021/12/30 18:24:04;;;;;;;1.40;1.30;;;16.70;52.60;;;;;;10353017;28;20222;-72
2021/12/30 18:29:07;;;;;;;1.20;1.20;;;16.80;52.40;;;;;;10349795;28;20733;-72
2021/12/30 18:34:12;;;;;;;1.43;1.33;;;16.80;52.50;;;;;;10357581;28;20729;-72
2021/12/30 18:39:16;;;;;;;1.10;1.10;;;16.70;52.40;;;;;;10357154;28;20214;-72
2021/12/30 18:44:19;;;;;;;1.40;1.30;;;16.70;52.30;;;;;;10355247;28;20233;-72
2021/12/30 18:49:23;;;;;;;1.10;1.10;;;16.70;52.50;;;;;;10351304;28;20664;-72
2021/12/30 18:54:28;;;;;;;1.20;1.20;;;16.60;52.50;;;;;;10346458;28;20238;-72
2021/12/30 18:59:31;;;;;;;1.40;1.30;;;16.60;52.50;;;;;;10350818;28;20241;-72
2021/12/30 19:04:35;;;;;;;0.97;0.97;;;16.60;52.60;;;;;;10355408;28;20240;-72
2021/12/30 19:09:39;;;;;;;1.20;1.20;;;16.60;52.50;;;;;;10351301;28;20222;-72
2021/12/30 19:14:43;;;;;;;1.50;1.40;;;16.70;52.50;;;;;;10351515;28;20223;-72
2021/12/30 19:19:46;;;;;;;1.17;1.17;;;16.70;52.50;;;;;;10355633;28;20253;-72
2021/12/30 19:24:52;;;;;;;1.30;1.20;;;16.70;52.50;;;;;;10356647;28;20234;-71
2021/12/30 19:29:55;;;;;;;1.60;1.50;;;16.60;52.40;;;;;;10352384;28;20250;-71
2021/12/30 19:34:58;;;;;;;2.30;2.10;;;16.60;52.30;;;;;;10352388;28;20590;-71
2021/12/30 19:40:09;;;;;;;1.73;1.63;;;16.60;52.40;;;;;;10357324;28;20227;-71
2021/12/30 19:45:13;;;;;;;1.57;1.50;;;16.60;52.50;;;;;;10351124;28;20237;-72
2021/12/30 19:50:17;;;;;;;1.30;1.20;;;16.50;52.50;;;;;;10351585;28;20248;-72
2021/12/30 19:55:22;;;;;;;1.00;1.00;;;16.50;52.20;;;;;;10351577;28;20238;-71
2021/12/30 20:00:28;;;;;;;1.03;1.03;;;16.50;52.20;;;;;;10349862;28;20230;-72
2021/12/30 20:05:31;;;;;;;1.20;1.20;;;16.40;52.40;;;;;;10348214;28;20232;-72
2021/12/30 20:10:36;;;;;;;2.20;1.30;;;16.40;52.50;;;;;;10348615;28;20238;-72
2021/12/30 20:15:39;;;;;;;2.00;1.63;;;16.30;52.70;;;;;;10353298;28;20237;-72
2021/12/30 20:20:43;;;;;;;1.40;1.30;;;16.30;52.70;;;;;;10345967;28;20231;-70
2021/12/30 20:25:48;;;;;;;1.70;1.60;;;16.30;52.90;;;;;;10352229;28;20721;-70
2021/12/30 20:30:52;;;;;;;1.87;1.70;;;16.30;53.00;;;;;;10350640;28;20249;-71
2021/12/30 20:35:56;;;;;;;2.03;1.87;;;16.30;52.90;;;;;;10346693;28;20740;-70
2021/12/30 20:41:01;;;;;;;2.20;2.10;;;16.20;52.90;;;;;;10350534;28;20226;-70
2021/12/30 20:46:04;;;;;;;1.40;1.40;;;16.20;53.20;;;;;;10347855;28;20238;-71
2021/12/30 20:51:08;;;;;;;1.50;1.40;;;16.20;53.10;;;;;;10346683;28;20607;-71
2021/12/30 20:56:17;;;;;;;2.00;1.90;;;16.20;53.10;;;;;;10348255;28;20605;-71
2021/12/30 21:01:22;;;;;;;1.47;1.40;;;16.10;53.00;;;;;;10350127;28;20229;-71
2021/12/30 21:06:26;;;;;;;1.40;1.30;;;16.20;53.00;;;;;;10349669;28;20694;-70
2021/12/30 21:11:32;;;;;;;2.57;1.40;;;16.20;52.90;;;;;;10353291;28;20230;-71
2021/12/30 21:16:35;;;;;;;0.87;0.87;;;16.20;52.90;;;;;;10342765;28;20284;-70
2021/12/30 21:21:38;;;;;;;0.90;0.90;;;16.10;52.80;;;;;;10341826;28;20233;-70
2021/12/30 21:26:43;;;;;;;1.60;0.80;;;16.10;52.80;;;;;;10351471;28;20734;-71
2021/12/30 21:31:46;;;;;;;1.00;1.00;;;16.20;52.70;;;;;;10345154;28;20249;-70
2021/12/30 21:36:49;;;;;;;0.90;0.90;;;16.20;52.60;;;;;;10351765;28;20273;-70
2021/12/30 21:41:54;;;;;;;1.10;1.10;;;16.10;52.30;;;;;;10356415;28;20237;-71
2021/12/30 21:46:57;;;;;;;1.30;1.20;;;16.20;52.30;;;;;;10357260;28;20230;-70
2021/12/30 21:52:02;;;;;;;1.20;1.20;;;16.20;52.50;;;;;;10357772;28;20230;-71
2021/12/30 21:57:06;;;;;;;1.43;1.33;;;16.10;52.50;;;;;;10357015;28;20245;-71
2021/12/30 22:02:10;;;;;;;1.43;1.27;;;16.10;52.70;;;;;;10357415;28;20225;-71
2021/12/30 22:07:13;;;;;;;1.43;1.10;;;16.10;52.70;;;;;;10356982;28;20253;-70
2021/12/30 22:12:17;;;;;;;1.33;1.00;;;16.10;52.70;;;;;;10357328;28;20234;-71
2021/12/30 22:17:21;;;;;;;2.13;0.93;;;16.10;52.50;;;;;;10359762;28;20229;-71
2021/12/30 22:22:24;;;;;;;0.97;0.97;;;16.10;52.50;;;;;;10354080;28;20381;-71
2021/12/30 22:27:30;;;;;;;1.53;1.43;;;16.10;52.40;;;;;;10353470;28;20379;-70
2021/12/30 22:32:34;;;;;;;1.37;1.27;;;16.10;52.30;;;;;;10354024;28;20235;-70
2021/12/30 22:37:37;;;;;;;1.27;1.20;;;16.10;52.30;;;;;;10352484;28;20230;-71
2021/12/30 22:42:42;;;;;;;1.27;1.17;;;16.10;52.10;;;;;;10354682;28;20233;-70
2021/12/30 22:47:47;;;;;;;1.60;1.10;;;16.10;52.00;;;;;;10350206;28;20235;-70
2021/12/30 22:52:50;;;;;;;1.43;1.40;;;16.10;51.90;;;;;;10348947;28;20326;-70
2021/12/30 22:57:55;;;;;;;1.60;1.33;;;16.10;51.70;;;;;;10348669;28;20237;-71
2021/12/30 23:02:58;;;;;;;1.27;1.20;;;16.10;51.50;;;;;;10350035;28;20237;-71
2021/12/30 23:08:01;;;;;;;1.53;1.30;;;16.00;51.70;;;;;;10349371;28;20238;-70
2021/12/30 23:13:06;;;;;;;1.40;1.30;;;16.00;51.60;;;;;;10356298;28;20628;-71
2021/12/30 23:18:09;;;;;;;1.60;1.50;;;15.90;51.30;;;;;;10354038;28;20249;-71
2021/12/30 23:23:12;;;;;;;1.60;1.50;;;15.90;51.30;;;;;;10356136;28;20623;-70
2021/12/30 23:28:17;;;;;;;1.53;1.43;;;15.90;51.10;;;;;;10352879;28;20242;-70
2021/12/30 23:33:20;;;;;;;1.53;1.43;;;15.80;50.50;;;;;;10351614;28;20227;-70
2021/12/30 23:38:25;;;;;;;2.53;1.60;;;15.80;50.30;;;;;;10349611;28;20241;-70
2021/12/30 23:43:30;;;;;;;1.80;1.70;;;15.70;50.10;;;;;;10352116;28;20733;-71
2021/12/30 23:48:33;;;;;;;1.70;1.60;;;15.60;50.00;;;;;;10349438;28;20233;-70
2021/12/30 23:53:36;;;;;;;1.60;1.50;;;15.60;50.10;;;;;;10351980;28;20223;-70
2021/12/30 23:58:41;;;;;;;1.87;1.77;;;15.50;49.90;;;;;;10342883;28;20638;-70
